createdAt,value
2023-02-03T00:00:27.585Z,8.51
2023-02-03T00:02:54.942Z,8.15
2023-02-03T00:05:22.278Z,8.14
2023-02-03T00:07:49.108Z,7.58
2023-02-03T00:10:21.174Z,7.35
2023-02-03T00:13:26.650Z,7.34
2023-02-03T00:16:26.708Z,7.57
2023-02-03T00:19:32.084Z,8.51
2023-02-03T00:21:58.513Z,7.58
2023-02-03T00:24:25.155Z,7.85
2023-02-03T00:27:26.691Z,8.20
2023-02-03T00:29:59.266Z,8.41
2023-02-03T00:32:25.839Z,8.04
2023-02-03T00:35:23.937Z,8.41
2023-02-03T00:38:26.425Z,8.22
2023-02-03T00:40:53.896Z,8.07
2023-02-03T00:43:20.842Z,8.66
2023-02-03T00:46:25.693Z,8.13
2023-02-03T00:48:52.109Z,8.91
2023-02-03T00:51:24.862Z,8.56
2023-02-03T00:54:26.664Z,8.04
2023-02-03T00:57:25.515Z,8.75
2023-02-03T00:59:51.967Z,8.61
2023-02-03T01:02:24.971Z,8.71
2023-02-03T01:04:58.821Z,8.43
2023-02-03T01:07:25.284Z,8.91
2023-02-03T01:09:51.763Z,8.28
2023-02-03T01:12:18.201Z,8.73
2023-02-03T01:14:44.691Z,8.52
2023-02-03T01:17:29.280Z,8.60
2023-02-03T01:20:01.861Z,8.69
2023-02-03T01:22:32.079Z,8.94
2023-02-03T01:25:01.569Z,9.02
2023-02-03T01:27:27.989Z,8.68
2023-02-03T01:32:43.835Z,8.63
2023-02-03T01:35:25.915Z,8.60
2023-02-03T01:38:26.611Z,8.77
2023-02-03T01:41:26.799Z,9.18
2023-02-03T01:43:55.855Z,8.93
2023-02-03T01:46:28.393Z,8.89
2023-02-03T01:49:26.147Z,9.42
2023-02-03T01:51:53.823Z,8.57
2023-02-03T01:54:31.382Z,8.89
2023-02-03T01:57:46.095Z,9.28
2023-02-03T02:00:24.973Z,9.42
2023-02-03T02:02:52.371Z,9.01
2023-02-03T02:05:45.995Z,9.48
2023-02-03T02:08:13.846Z,9.77
2023-02-03T02:10:40.832Z,9.49
2023-02-03T02:13:08.293Z,9.53
2023-02-03T02:15:44.483Z,9.36
2023-02-03T02:18:20.009Z,8.99
2023-02-03T02:21:05.927Z,9.18
2023-02-03T02:23:58.212Z,9.31
2023-02-03T02:26:52.878Z,9.09
2023-02-03T02:29:55.307Z,9.46
2023-02-03T02:32:27.430Z,9.50
2023-02-03T02:35:20.382Z,9.66
2023-02-03T02:38:04.865Z,9.81
2023-02-03T02:40:43.828Z,9.76
2023-02-03T02:43:28.683Z,9.36
2023-02-03T02:46:02.113Z,9.74
2023-02-03T02:48:35.101Z,9.58
2023-02-03T02:51:04.835Z,9.60
2023-02-03T02:53:35.532Z,9.56
2023-02-03T02:56:06.993Z,10.13
2023-02-03T02:58:35.947Z,9.51
2023-02-03T03:01:03.820Z,9.40
2023-02-03T03:03:30.356Z,10.12
2023-02-03T03:06:02.102Z,9.79
2023-02-03T03:08:39.451Z,10.18
2023-02-03T03:11:06.779Z,10.37
2023-02-03T03:13:38.860Z,10.03
2023-02-03T03:16:08.053Z,9.69
2023-02-03T03:18:43.971Z,9.55
2023-02-03T03:21:14.255Z,9.64
2023-02-03T03:23:44.479Z,9.98
2023-02-03T03:26:44.594Z,9.85
2023-02-03T03:29:17.693Z,9.54
2023-02-03T03:31:45.296Z,9.91
2023-02-03T03:34:13.331Z,9.96
2023-02-03T03:37:06.150Z,10.20
2023-02-03T03:39:44.771Z,10.02
2023-02-03T03:42:32.171Z,10.02
2023-02-03T03:45:26.814Z,9.99
2023-02-03T03:48:13.642Z,10.16
2023-02-03T03:50:59.182Z,9.88
2023-02-03T03:53:28.727Z,9.95
2023-02-03T03:55:57.403Z,9.92
2023-02-03T03:58:30.748Z,10.11
2023-02-03T04:01:02.464Z,10.21
2023-02-03T04:03:44.907Z,10.24
2023-02-03T04:06:12.315Z,9.80
2023-02-03T04:08:39.574Z,9.78
2023-02-03T04:11:06.672Z,9.65
2023-02-03T04:13:33.097Z,9.98
2023-02-03T04:15:59.621Z,10.13
2023-02-03T04:18:26.092Z,10.50
2023-02-03T04:20:52.493Z,10.59
2023-02-03T04:23:18.908Z,10.27
2023-02-03T04:25:45.311Z,9.91
2023-02-03T04:28:11.814Z,10.12
2023-02-03T04:30:39.162Z,9.89
2023-02-03T04:33:05.600Z,10.04
2023-02-03T04:35:31.989Z,10.41
2023-02-03T04:37:58.465Z,9.88
2023-02-03T04:40:25.147Z,10.05
2023-02-03T04:42:51.653Z,10.23
2023-02-03T04:45:18.175Z,10.55
2023-02-03T04:47:44.573Z,10.24
2023-02-03T04:50:11.107Z,10.45
2023-02-03T04:52:37.767Z,10.55
2023-02-03T04:55:04.485Z,9.66
2023-02-03T04:57:31.139Z,9.88
2023-02-03T04:59:57.605Z,10.23
2023-02-03T05:02:24.004Z,10.67
2023-02-03T05:04:50.546Z,10.04
2023-02-03T05:07:17.036Z,10.34
2023-02-03T05:09:43.427Z,10.86
2023-02-03T05:12:09.840Z,10.58
2023-02-03T05:14:36.266Z,10.73
2023-02-03T05:17:02.726Z,10.80
2023-02-03T05:19:29.137Z,10.38
2023-02-03T05:21:55.567Z,10.27
2023-02-03T05:24:21.978Z,10.30
2023-02-03T05:26:48.523Z,11.04
2023-02-03T05:29:14.956Z,10.62
2023-02-03T05:31:41.441Z,10.56
2023-02-03T05:34:07.989Z,10.90
2023-02-03T05:36:34.463Z,10.66
2023-02-03T05:39:00.926Z,10.28
2023-02-03T05:41:45.814Z,10.34
2023-02-03T05:44:12.231Z,10.93
2023-02-03T05:46:38.689Z,10.99
2023-02-03T05:49:05.210Z,10.71
2023-02-03T05:51:31.752Z,10.72
2023-02-03T05:53:58.202Z,10.58
2023-02-03T05:56:24.680Z,10.45
2023-02-03T05:58:53.850Z,10.72
2023-02-03T06:01:20.394Z,10.44
2023-02-03T06:03:47.862Z,10.58
2023-02-03T06:06:14.683Z,10.48
2023-02-03T06:08:41.278Z,10.70
2023-02-03T06:11:07.742Z,10.92
2023-02-03T06:13:34.238Z,11.18
2023-02-03T06:16:00.748Z,10.58
2023-02-03T06:18:27.353Z,10.44
2023-02-03T06:20:53.868Z,10.98
2023-02-03T06:23:20.422Z,10.19
2023-02-03T06:25:52.105Z,10.38
2023-02-03T06:28:18.902Z,10.27
2023-02-03T06:30:45.560Z,10.06
2023-02-03T06:33:12.032Z,10.91
2023-02-03T06:35:38.515Z,10.58
2023-02-03T06:38:06.010Z,10.45
2023-02-03T06:40:32.478Z,10.56
2023-02-03T06:42:58.995Z,10.25
2023-02-03T06:45:25.781Z,10.17
2023-02-03T06:47:52.197Z,10.45
2023-02-03T06:50:18.745Z,10.21
2023-02-03T06:52:45.327Z,10.22
2023-02-03T06:55:11.919Z,10.67
2023-02-03T06:57:48.466Z,10.43
2023-02-03T07:00:18.945Z,10.50
2023-02-03T07:02:46.358Z,10.38
2023-02-03T07:05:12.910Z,10.09
2023-02-03T07:07:39.501Z,10.11
2023-02-03T07:10:06.702Z,10.61
2023-02-03T07:12:33.181Z,9.84
2023-02-03T07:14:59.567Z,9.88
2023-02-03T07:17:26.109Z,9.96
2023-02-03T07:19:52.723Z,10.43
2023-02-03T07:22:19.186Z,10.43
2023-02-03T07:24:45.858Z,10.13
2023-02-03T07:27:12.305Z,10.27
2023-02-03T07:29:38.736Z,10.49
2023-02-03T07:32:05.426Z,10.57
2023-02-03T07:34:32.038Z,10.11
2023-02-03T07:36:59.029Z,10.23
2023-02-03T07:39:25.714Z,10.60
2023-02-03T07:41:52.264Z,10.37
2023-02-03T07:44:18.723Z,10.59
2023-02-03T07:46:45.539Z,10.44
2023-02-03T07:49:12.265Z,9.90
2023-02-03T07:51:38.804Z,10.76
2023-02-03T07:54:05.568Z,10.54
2023-02-03T07:56:32.753Z,10.66
2023-02-03T07:58:59.817Z,10.53
2023-02-03T08:01:27.314Z,10.42
2023-02-03T08:03:55.212Z,10.08
2023-02-03T08:06:21.971Z,9.91
2023-02-03T08:08:48.364Z,10.36
2023-02-03T08:11:14.812Z,10.12
2023-02-03T08:13:41.206Z,10.53
2023-02-03T08:16:07.680Z,10.21
2023-02-03T08:18:34.235Z,9.97
2023-02-03T08:21:02.543Z,10.37
2023-02-03T08:23:29.045Z,9.90
2023-02-03T08:25:55.462Z,10.57
2023-02-03T08:28:21.908Z,10.43
2023-02-03T08:30:48.410Z,9.63
2023-02-03T08:33:14.879Z,10.04
2023-02-03T08:35:44.733Z,10.23
2023-02-03T08:38:11.240Z,10.40
2023-02-03T08:40:38.280Z,10.58
2023-02-03T08:43:04.973Z,10.30
2023-02-03T08:45:31.481Z,10.26
2023-02-03T08:47:58.031Z,10.68
2023-02-03T08:50:24.535Z,10.34
2023-02-03T08:52:50.962Z,10.19
2023-02-03T08:55:17.415Z,9.86
2023-02-03T08:57:44.262Z,10.49
2023-02-03T09:00:11.506Z,10.52
2023-02-03T09:02:37.916Z,10.17
2023-02-03T09:05:04.658Z,10.41
2023-02-03T09:07:31.237Z,10.55
2023-02-03T09:09:57.667Z,9.99
2023-02-03T09:12:24.119Z,10.18
2023-02-03T09:14:50.949Z,10.81
2023-02-03T09:17:17.320Z,10.36
2023-02-03T09:19:43.789Z,10.61
2023-02-03T09:22:10.200Z,10.08
2023-02-03T09:24:36.759Z,10.46
2023-02-03T09:27:03.281Z,10.23
2023-02-03T09:29:29.769Z,10.55
2023-02-03T09:31:56.263Z,10.39
2023-02-03T09:34:22.945Z,10.87
2023-02-03T09:36:51.288Z,10.64
2023-02-03T09:39:17.774Z,10.44
2023-02-03T09:42:02.347Z,10.02
2023-02-03T09:44:43.911Z,10.69
2023-02-03T09:47:25.271Z,10.76
2023-02-03T09:49:55.517Z,10.59
2023-02-03T09:52:34.404Z,10.63
2023-02-03T09:55:25.495Z,10.80
2023-02-03T09:58:19.450Z,11.20
2023-02-03T10:00:53.347Z,10.72
2023-02-03T10:03:20.503Z,10.57
2023-02-03T10:06:05.244Z,10.90
2023-02-03T10:08:39.204Z,10.77
2023-02-03T10:11:23.909Z,11.18
2023-02-03T10:14:17.114Z,10.54
2023-02-03T10:17:02.382Z,10.81
2023-02-03T10:19:43.394Z,10.54
2023-02-03T10:22:17.225Z,10.10
2023-02-03T10:24:54.315Z,10.37
2023-02-03T10:27:23.145Z,10.03
2023-02-03T10:29:56.797Z,10.04
2023-02-03T10:32:24.918Z,10.68
2023-02-03T10:34:51.341Z,10.00
2023-02-03T10:37:22.392Z,10.14
2023-02-03T10:39:51.460Z,10.42
2023-02-03T10:42:18.647Z,10.65
2023-02-03T10:44:59.535Z,10.12
2023-02-03T10:47:41.268Z,10.25
2023-02-03T10:50:23.290Z,10.34
2023-02-03T10:52:49.857Z,10.35
2023-02-03T10:55:25.328Z,10.63
2023-02-03T10:57:55.873Z,10.85
2023-02-03T11:00:32.463Z,11.44
2023-02-03T11:03:10.753Z,10.51
2023-02-03T11:05:37.245Z,9.66
2023-02-03T11:08:04.055Z,9.82
2023-02-03T11:10:40.258Z,9.46
2023-02-03T11:13:27.356Z,9.87
2023-02-03T11:16:14.477Z,9.82
2023-02-03T11:18:47.255Z,9.94
2023-02-03T11:21:17.629Z,10.21
2023-02-03T11:23:49.042Z,10.41
2023-02-03T11:26:20.755Z,10.29
2023-02-03T11:28:50.482Z,9.57
2023-02-03T11:31:20.405Z,10.14
2023-02-03T11:33:49.217Z,10.14
2023-02-03T11:36:17.409Z,10.21
2023-02-03T11:38:44.713Z,10.93
2023-02-03T11:41:22.422Z,10.68
2023-02-03T11:43:55.593Z,10.56
2023-02-03T11:46:22.242Z,10.24
2023-02-03T11:49:09.609Z,10.33
2023-02-03T11:51:58.584Z,10.92
2023-02-03T11:54:40.626Z,10.09
2023-02-03T11:57:18.959Z,10.23
2023-02-03T12:00:13.317Z,10.42
2023-02-03T12:02:45.823Z,10.95
2023-02-03T12:05:18.441Z,10.67
2023-02-03T12:07:44.790Z,10.11
2023-02-03T12:10:35.970Z,10.67
2023-02-03T12:13:20.130Z,11.34
2023-02-03T12:16:04.141Z,11.19
2023-02-03T12:18:49.427Z,11.09
2023-02-03T12:21:18.862Z,10.12
2023-02-03T12:23:53.911Z,10.12
2023-02-03T12:26:34.547Z,10.51
2023-02-03T12:29:06.889Z,10.21
2023-02-03T12:32:05.484Z,10.51
2023-02-03T12:34:38.312Z,10.77
2023-02-03T12:37:06.788Z,10.90
2023-02-03T12:39:48.131Z,10.84
2023-02-03T12:42:41.855Z,11.03
2023-02-03T12:45:08.259Z,11.13
2023-02-03T12:47:44.694Z,11.56
2023-02-03T12:50:23.814Z,11.63
2023-02-03T12:53:01.763Z,11.94
2023-02-03T12:55:44.888Z,11.36
2023-02-03T12:58:23.212Z,11.17
2023-02-03T13:01:02.945Z,10.68
2023-02-03T13:03:45.801Z,11.71
2023-02-03T13:06:20.198Z,11.95
2023-02-03T13:08:58.190Z,10.73
2023-02-03T13:11:42.880Z,11.04
2023-02-03T13:14:27.507Z,10.90
2023-02-03T13:17:00.579Z,11.38
2023-02-03T13:19:41.158Z,10.71
2023-02-03T13:22:12.965Z,11.51
2023-02-03T13:24:43.873Z,11.07
2023-02-03T13:27:35.060Z,11.21
2023-02-03T13:30:10.693Z,11.71
2023-02-03T13:32:56.769Z,12.43
2023-02-03T13:35:50.334Z,12.22
2023-02-03T13:38:44.472Z,11.57
2023-02-03T13:41:28.541Z,10.61
2023-02-03T13:43:57.219Z,11.11
2023-02-03T13:46:27.495Z,11.28
2023-02-03T13:48:56.852Z,10.97
2023-02-03T13:51:46.809Z,11.23
2023-02-03T13:54:30.108Z,11.23
2023-02-03T13:57:01.386Z,10.53
2023-02-03T13:59:36.934Z,11.48
2023-02-03T14:02:32.098Z,11.33
2023-02-03T14:04:59.667Z,11.59
2023-02-03T14:07:29.083Z,10.77
2023-02-03T14:10:16.893Z,11.73
2023-02-03T14:12:49.369Z,11.55
2023-02-03T14:15:28.872Z,11.33
2023-02-03T14:18:00.215Z,11.60
2023-02-03T14:20:26.710Z,11.18
2023-02-03T14:22:54.603Z,10.52
2023-02-03T14:25:21.946Z,11.51
2023-02-03T14:28:09.815Z,11.36
2023-02-03T14:31:02.906Z,11.12
2023-02-03T14:33:48.112Z,11.32
2023-02-03T14:36:38.806Z,10.89
2023-02-03T14:39:37.183Z,10.47
2023-02-03T14:42:22.548Z,10.57
2023-02-03T14:45:06.783Z,10.48
2023-02-03T14:47:45.341Z,11.16
2023-02-03T14:50:43.429Z,11.51
2023-02-03T14:53:28.670Z,11.20
2023-02-03T14:56:07.355Z,11.06
2023-02-03T14:58:44.378Z,11.52
2023-02-03T15:01:49.388Z,10.71
2023-02-03T15:04:15.851Z,10.69
2023-02-03T15:06:43.449Z,10.27
2023-02-03T15:09:31.699Z,11.21
2023-02-03T15:11:58.509Z,11.34
2023-02-03T15:14:27.860Z,10.86
2023-02-03T15:17:12.298Z,11.07
2023-02-03T15:19:41.379Z,10.95
2023-02-03T15:22:23.708Z,11.24
2023-02-03T15:24:58.708Z,10.45
2023-02-03T15:27:28.009Z,11.30
2023-02-03T15:29:57.154Z,10.98
2023-02-03T15:32:29.352Z,10.69
2023-02-03T15:34:58.491Z,10.74
2023-02-03T15:37:41.761Z,11.53
2023-02-03T15:40:17.651Z,10.84
2023-02-03T15:43:05.765Z,10.12
2023-02-03T15:45:37.728Z,11.15
2023-02-03T15:48:36.903Z,10.26
2023-02-03T15:51:12.858Z,11.19
2023-02-03T15:54:00.610Z,10.76
2023-02-03T15:56:41.006Z,11.30
2023-02-03T15:59:22.706Z,11.31
2023-02-03T16:01:49.547Z,10.48
2023-02-03T16:04:16.264Z,10.82
2023-02-03T16:06:47.638Z,11.27
2023-02-03T16:09:35.063Z,9.77
2023-02-03T16:12:07.407Z,10.71
2023-02-03T16:14:36.425Z,10.85
2023-02-03T16:17:06.092Z,10.35
2023-02-03T16:19:37.947Z,10.28
2023-02-03T16:22:04.480Z,10.40
2023-02-03T16:24:42.374Z,10.75
2023-02-03T16:27:33.050Z,10.33
2023-02-03T16:30:24.045Z,10.56
2023-02-03T16:33:31.080Z,10.58
2023-02-03T16:36:20.017Z,9.83
2023-02-03T16:39:08.860Z,10.54
2023-02-03T16:41:55.636Z,9.68
2023-02-03T16:44:40.604Z,9.66
2023-02-03T16:47:57.299Z,9.90
2023-02-03T16:50:43.478Z,9.67
2023-02-03T16:53:17.719Z,9.96
2023-02-03T16:55:44.555Z,9.43
2023-02-03T16:58:13.890Z,10.01
2023-02-03T17:00:42.475Z,9.35
2023-02-03T17:03:20.919Z,9.17
2023-02-03T17:05:48.727Z,9.81
2023-02-03T17:08:17.469Z,9.18
2023-02-03T17:10:45.022Z,9.55
2023-02-03T17:13:12.075Z,9.99
2023-02-03T17:15:52.456Z,9.70
2023-02-03T17:18:19.331Z,9.09
2023-02-03T17:20:46.271Z,9.50
2023-02-03T17:23:13.404Z,9.44
2023-02-03T17:25:40.603Z,9.54
2023-02-03T17:28:08.639Z,9.92
2023-02-03T17:30:36.057Z,9.50
2023-02-03T17:33:11.824Z,9.11
2023-02-03T17:35:39.984Z,9.60
2023-02-03T17:38:06.445Z,9.26
2023-02-03T17:54:14.041Z,9.45
2023-02-03T17:56:40.504Z,9.47
2023-02-03T17:59:06.897Z,9.45
2023-02-03T18:01:33.395Z,9.95
2023-02-03T18:04:04.828Z,9.08
2023-02-03T18:06:35.530Z,9.55
2023-02-03T18:09:06.365Z,9.31
2023-02-03T18:11:34.668Z,9.94
2023-02-03T18:14:01.470Z,9.43
2023-02-03T18:16:32.393Z,9.46
2023-02-03T18:19:00.556Z,10.43
2023-02-03T18:21:27.235Z,10.33
2023-02-03T18:23:59.259Z,10.14
2023-02-03T18:26:28.764Z,10.60
2023-02-03T18:28:56.000Z,9.85
2023-02-03T18:31:22.484Z,10.03
2023-02-03T18:33:49.088Z,10.01
2023-02-03T18:36:16.676Z,9.61
2023-02-03T18:38:45.333Z,9.96
2023-02-03T18:41:15.497Z,9.61
2023-02-03T18:43:42.229Z,10.11
2023-02-03T18:46:11.363Z,9.47
2023-02-03T18:48:37.833Z,9.89
2023-02-03T18:51:08.991Z,8.69
2023-02-03T18:53:36.228Z,9.39
2023-02-03T18:56:06.557Z,9.78
2023-02-03T18:58:33.425Z,8.61
2023-02-03T19:01:00.593Z,8.56
2023-02-03T19:03:27.367Z,8.88
2023-02-03T19:05:54.232Z,9.06
2023-02-03T19:08:20.861Z,8.85
2023-02-03T19:10:51.037Z,9.64
2023-02-03T19:13:18.146Z,8.19
2023-02-03T19:15:44.860Z,8.56
2023-02-03T19:18:11.308Z,9.24
2023-02-03T19:20:37.747Z,8.35
2023-02-03T19:23:08.314Z,8.26
2023-02-03T19:25:38.544Z,9.15
2023-02-03T19:28:06.738Z,8.46
2023-02-03T19:30:33.364Z,8.61
2023-02-03T19:32:59.808Z,8.72
2023-02-03T19:35:26.410Z,8.97
2023-02-03T19:37:53.710Z,9.01
2023-02-03T19:40:20.180Z,9.09
2023-02-03T19:42:46.648Z,9.00
2023-02-03T19:45:13.189Z,8.45
2023-02-03T19:47:39.590Z,8.65
2023-02-03T19:50:06.538Z,8.34
2023-02-03T19:52:33.214Z,8.31
2023-02-03T19:54:59.631Z,8.24
2023-02-03T19:57:26.208Z,8.99
2023-02-03T19:59:52.592Z,8.44
2023-02-03T20:02:20.115Z,8.92
2023-02-03T20:04:46.688Z,8.84
2023-02-03T20:07:14.156Z,7.98
2023-02-03T20:09:40.650Z,8.64
2023-02-03T20:12:07.170Z,8.85
2023-02-03T20:14:33.838Z,8.43
2023-02-03T20:17:00.336Z,8.01
2023-02-03T20:19:26.748Z,9.39
2023-02-03T20:21:53.130Z,8.65
2023-02-03T20:24:19.723Z,8.50
2023-02-03T20:26:46.188Z,8.19
2023-02-03T20:29:12.714Z,8.86
2023-02-03T20:31:39.231Z,8.75
2023-02-03T20:34:06.152Z,8.30
2023-02-03T20:36:32.698Z,8.88
2023-02-03T20:38:59.187Z,9.44
2023-02-03T20:41:25.573Z,9.39
2023-02-03T20:43:52.131Z,9.32
2023-02-03T20:46:19.062Z,8.59
2023-02-03T20:48:45.592Z,9.46
2023-02-03T20:51:18.301Z,9.97
2023-02-03T20:53:44.737Z,9.50
2023-02-03T20:56:13.961Z,9.47
2023-02-03T20:58:42.460Z,8.99
2023-02-03T21:01:20.701Z,8.62
2023-02-03T21:04:06.480Z,8.68
2023-02-03T21:06:34.127Z,8.68
2023-02-03T21:09:08.779Z,7.94
2023-02-03T21:11:35.330Z,7.99
2023-02-03T21:14:05.076Z,8.77
2023-02-03T21:16:38.834Z,8.31
2023-02-03T21:19:11.046Z,8.50
2023-02-03T21:21:40.266Z,8.77
2023-02-03T21:24:37.841Z,8.64
2023-02-03T21:27:22.236Z,9.22
2023-02-03T21:29:50.028Z,8.69
2023-02-03T21:32:16.419Z,8.80
2023-02-03T21:34:44.475Z,8.69
2023-02-03T21:37:22.776Z,7.89
2023-02-03T21:39:49.589Z,8.22
2023-02-03T21:42:42.803Z,8.42
2023-02-03T21:45:16.593Z,8.57
2023-02-03T21:47:44.686Z,9.09
2023-02-03T21:50:36.762Z,8.78
2023-02-03T21:53:09.201Z,8.54
2023-02-03T21:55:36.898Z,9.31
2023-02-03T21:58:12.154Z,9.19
2023-02-03T22:00:43.407Z,8.81
2023-02-03T22:03:20.266Z,8.93
2023-02-03T22:05:47.715Z,9.40
2023-02-03T22:08:18.564Z,9.32
2023-02-03T22:10:45.133Z,9.03
2023-02-03T22:13:13.033Z,9.21
2023-02-03T22:15:40.922Z,9.05
2023-02-03T22:18:07.541Z,8.92
2023-02-03T22:20:34.885Z,8.92
2023-02-03T22:23:01.340Z,9.09
2023-02-03T22:25:27.836Z,8.88
2023-02-03T22:27:54.362Z,9.48
2023-02-03T22:30:20.962Z,8.82
2023-02-03T22:32:47.399Z,8.73
2023-02-03T22:35:13.896Z,8.92
2023-02-03T22:37:40.319Z,8.98
2023-02-03T22:40:06.987Z,9.27
2023-02-03T22:42:33.394Z,9.07
2023-02-03T22:44:59.818Z,8.95
2023-02-03T22:47:26.392Z,9.31
2023-02-03T22:49:52.823Z,9.20
2023-02-03T22:52:19.239Z,9.12
2023-02-03T22:54:45.708Z,8.93
2023-02-03T22:57:12.139Z,8.86
2023-02-03T22:59:38.602Z,9.30
2023-02-03T23:02:05.026Z,9.04
2023-02-03T23:04:31.449Z,9.09
2023-02-03T23:06:57.876Z,8.65
2023-02-03T23:09:24.354Z,9.29
2023-02-03T23:11:50.846Z,9.02
2023-02-03T23:14:17.278Z,9.26
2023-02-03T23:16:43.844Z,9.24
2023-02-03T23:19:10.246Z,9.14
2023-02-03T23:21:36.640Z,9.13
2023-02-03T23:24:03.257Z,9.03
2023-02-03T23:26:29.704Z,9.09
2023-02-03T23:28:56.161Z,8.96
2023-02-03T23:31:22.677Z,8.85
2023-02-03T23:34:09.430Z,9.45
2023-02-03T23:36:35.880Z,9.26
2023-02-03T23:39:02.370Z,9.07
2023-02-03T23:41:28.790Z,9.27
2023-02-03T23:43:55.197Z,9.02
2023-02-03T23:46:21.650Z,8.53
2023-02-03T23:48:48.106Z,9.22
2023-02-03T23:51:14.598Z,9.15
2023-02-03T23:53:40.986Z,9.09
2023-02-03T23:56:07.426Z,9.02
2023-02-03T23:58:33.859Z,9.07
